sensor_id;sensor_type;location;lat;lon;timestamp;P1;durP1;ratioP1;P2;durP2;ratioP2
14470;SDS011;7321;50.802;4.336;2022-10-17T00:00:32;11.07;;;7.28;;
14470;SDS011;7321;50.802;4.336;2022-10-17T00:02:58;8.35;;;7.55;;
14470;SDS011;7321;50.802;4.336;2022-10-17T00:05:24;8.30;;;7.45;;
14470;SDS011;7321;50.802;4.336;2022-10-17T00:07:50;8.55;;;7.60;;
14470;SDS011;7321;50.802;4.336;2022-10-17T00:10:16;13.00;;;7.68;;
14470;SDS011;7321;50.802;4.336;2022-10-17T00:12:43;8.68;;;6.97;;
14470;SDS011;7321;50.802;4.336;2022-10-17T00:15:09;9.88;;;7.70;;
14470;SDS011;7321;50.802;4.336;2022-10-17T00:17:39;11.25;;;7.65;;
14470;SDS011;7321;50.802;4.336;2022-10-17T00:20:06;10.75;;;8.05;;
14470;SDS011;7321;50.802;4.336;2022-10-17T00:22:32;11.57;;;7.70;;
14470;SDS011;7321;50.802;4.336;2022-10-17T00:24:58;12.55;;;7.72;;
14470;SDS011;7321;50.802;4.336;2022-10-17T00:27:26;10.55;;;7.97;;
14470;SDS011;7321;50.802;4.336;2022-10-17T00:29:52;8.05;;;7.22;;
14470;SDS011;7321;50.802;4.336;2022-10-17T00:32:18;10.25;;;7.93;;
14470;SDS011;7321;50.802;4.336;2022-10-17T00:34:44;8.65;;;7.72;;
14470;SDS011;7321;50.802;4.336;2022-10-17T00:37:13;12.70;;;8.20;;
14470;SDS011;7321;50.802;4.336;2022-10-17T00:39:39;10.18;;;7.43;;
14470;SDS011;7321;50.802;4.336;2022-10-17T00:42:04;9.02;;;8.18;;
14470;SDS011;7321;50.802;4.336;2022-10-17T00:46:57;13.00;;;8.90;;
14470;SDS011;7321;50.802;4.336;2022-10-17T00:49:26;9.52;;;7.85;;
14470;SDS011;7321;50.802;4.336;2022-10-17T00:51:56;11.93;;;8.25;;
14470;SDS011;7321;50.802;4.336;2022-10-17T00:54:26;9.45;;;8.18;;
14470;SDS011;7321;50.802;4.336;2022-10-17T00:57:11;8.73;;;7.78;;
14470;SDS011;7321;50.802;4.336;2022-10-17T00:59:38;9.07;;;7.50;;
14470;SDS011;7321;50.802;4.336;2022-10-17T01:02:10;11.40;;;8.43;;
14470;SDS011;7321;50.802;4.336;2022-10-17T01:04:38;13.82;;;8.65;;
14470;SDS011;7321;50.802;4.336;2022-10-17T01:07:06;10.13;;;8.10;;
14470;SDS011;7321;50.802;4.336;2022-10-17T01:09:32;11.95;;;8.85;;
14470;SDS011;7321;50.802;4.336;2022-10-17T01:12:14;11.80;;;8.68;;
14470;SDS011;7321;50.802;4.336;2022-10-17T01:15:21;10.82;;;8.43;;
14470;SDS011;7321;50.802;4.336;2022-10-17T01:23:52;12.77;;;8.80;;
14470;SDS011;7321;50.802;4.336;2022-10-17T01:26:46;10.55;;;9.02;;
14470;SDS011;7321;50.802;4.336;2022-10-17T01:32:18;10.60;;;8.30;;
14470;SDS011;7321;50.802;4.336;2022-10-17T01:43:06;12.10;;;8.88;;
14470;SDS011;7321;50.802;4.336;2022-10-17T01:45:43;12.18;;;9.43;;
14470;SDS011;7321;50.802;4.336;2022-10-17T01:48:25;10.50;;;8.90;;
14470;SDS011;7321;50.802;4.336;2022-10-17T01:51:00;11.65;;;9.02;;
14470;SDS011;7321;50.802;4.336;2022-10-17T01:53:33;9.52;;;7.68;;
14470;SDS011;7321;50.802;4.336;2022-10-17T01:56:02;11.45;;;8.07;;
14470;SDS011;7321;50.802;4.336;2022-10-17T01:58:34;10.13;;;8.02;;
14470;SDS011;7321;50.802;4.336;2022-10-17T02:01:05;10.50;;;8.38;;
14470;SDS011;7321;50.802;4.336;2022-10-17T02:03:38;10.77;;;8.70;;
14470;SDS011;7321;50.802;4.336;2022-10-17T02:06:06;11.55;;;7.93;;
14470;SDS011;7321;50.802;4.336;2022-10-17T02:08:42;11.15;;;8.50;;
14470;SDS011;7321;50.802;4.336;2022-10-17T02:11:20;8.30;;;7.50;;
14470;SDS011;7321;50.802;4.336;2022-10-17T02:16:40;9.10;;;7.55;;
14470;SDS011;7321;50.802;4.336;2022-10-17T02:24:19;9.63;;;7.78;;
14470;SDS011;7321;50.802;4.336;2022-10-17T02:29:37;9.38;;;7.78;;
14470;SDS011;7321;50.802;4.336;2022-10-17T02:32:18;9.90;;;7.15;;
14470;SDS011;7321;50.802;4.336;2022-10-17T02:35:00;8.70;;;7.65;;
14470;SDS011;7321;50.802;4.336;2022-10-17T02:37:28;9.52;;;7.55;;
14470;SDS011;7321;50.802;4.336;2022-10-17T02:39:56;8.27;;;7.47;;
14470;SDS011;7321;50.802;4.336;2022-10-17T02:42:24;8.52;;;7.22;;
14470;SDS011;7321;50.802;4.336;2022-10-17T02:44:52;8.30;;;7.00;;
14470;SDS011;7321;50.802;4.336;2022-10-17T02:47:31;9.43;;;7.00;;
14470;SDS011;7321;50.802;4.336;2022-10-17T02:50:02;10.10;;;7.10;;
14470;SDS011;7321;50.802;4.336;2022-10-17T02:55:17;7.60;;;6.63;;
14470;SDS011;7321;50.802;4.336;2022-10-17T02:57:48;8.48;;;7.18;;
14470;SDS011;7321;50.802;4.336;2022-10-17T03:00:17;8.80;;;7.25;;
14470;SDS011;7321;50.802;4.336;2022-10-17T03:02:47;7.97;;;7.18;;
14470;SDS011;7321;50.802;4.336;2022-10-17T03:05:19;7.32;;;6.63;;
14470;SDS011;7321;50.802;4.336;2022-10-17T03:07:47;9.55;;;7.18;;
14470;SDS011;7321;50.802;4.336;2022-10-17T03:10:13;11.82;;;6.80;;
14470;SDS011;7321;50.802;4.336;2022-10-17T03:12:39;8.18;;;7.03;;
14470;SDS011;7321;50.802;4.336;2022-10-17T03:15:05;9.65;;;7.03;;
14470;SDS011;7321;50.802;4.336;2022-10-17T03:17:31;9.45;;;7.63;;
14470;SDS011;7321;50.802;4.336;2022-10-17T03:19:57;7.82;;;6.90;;
14470;SDS011;7321;50.802;4.336;2022-10-17T03:22:23;7.63;;;6.63;;
14470;SDS011;7321;50.802;4.336;2022-10-17T03:24:49;10.27;;;6.85;;
14470;SDS011;7321;50.802;4.336;2022-10-17T03:27:14;9.75;;;6.32;;
14470;SDS011;7321;50.802;4.336;2022-10-17T03:29:40;7.88;;;6.72;;
14470;SDS011;7321;50.802;4.336;2022-10-17T03:32:06;9.70;;;7.35;;
14470;SDS011;7321;50.802;4.336;2022-10-17T03:34:32;7.32;;;6.63;;
14470;SDS011;7321;50.802;4.336;2022-10-17T03:36:58;7.13;;;6.40;;
14470;SDS011;7321;50.802;4.336;2022-10-17T03:39:24;7.22;;;6.60;;
14470;SDS011;7321;50.802;4.336;2022-10-17T03:41:49;11.07;;;6.88;;
14470;SDS011;7321;50.802;4.336;2022-10-17T03:44:15;13.30;;;7.30;;
14470;SDS011;7321;50.802;4.336;2022-10-17T03:46:41;7.75;;;6.90;;
14470;SDS011;7321;50.802;4.336;2022-10-17T03:49:07;10.57;;;6.90;;
14470;SDS011;7321;50.802;4.336;2022-10-17T03:51:34;9.23;;;6.90;;
14470;SDS011;7321;50.802;4.336;2022-10-17T03:54:00;9.10;;;7.07;;
14470;SDS011;7321;50.802;4.336;2022-10-17T03:56:26;10.00;;;6.95;;
14470;SDS011;7321;50.802;4.336;2022-10-17T03:58:52;7.97;;;6.95;;
14470;SDS011;7321;50.802;4.336;2022-10-17T04:01:19;9.05;;;7.25;;
14470;SDS011;7321;50.802;4.336;2022-10-17T04:03:51;8.52;;;6.95;;
14470;SDS011;7321;50.802;4.336;2022-10-17T04:06:20;7.93;;;7.20;;
14470;SDS011;7321;50.802;4.336;2022-10-17T04:08:46;10.40;;;7.15;;
14470;SDS011;7321;50.802;4.336;2022-10-17T04:11:13;8.77;;;7.30;;
14470;SDS011;7321;50.802;4.336;2022-10-17T04:13:41;7.22;;;6.63;;
14470;SDS011;7321;50.802;4.336;2022-10-17T04:16:10;7.40;;;6.70;;
14470;SDS011;7321;50.802;4.336;2022-10-17T04:18:38;10.13;;;6.43;;
14470;SDS011;7321;50.802;4.336;2022-10-17T04:21:04;11.68;;;6.90;;
14470;SDS011;7321;50.802;4.336;2022-10-17T04:23:30;8.25;;;6.78;;
14470;SDS011;7321;50.802;4.336;2022-10-17T04:25:57;7.90;;;7.10;;
14470;SDS011;7321;50.802;4.336;2022-10-17T04:28:24;11.18;;;6.57;;
14470;SDS011;7321;50.802;4.336;2022-10-17T04:31:00;7.35;;;6.38;;
14470;SDS011;7321;50.802;4.336;2022-10-17T04:33:31;7.78;;;7.05;;
14470;SDS011;7321;50.802;4.336;2022-10-17T04:35:57;7.25;;;6.20;;
14470;SDS011;7321;50.802;4.336;2022-10-17T04:38:28;8.30;;;6.90;;
14470;SDS011;7321;50.802;4.336;2022-10-17T04:40:58;8.60;;;6.03;;
14470;SDS011;7321;50.802;4.336;2022-10-17T04:43:28;8.48;;;6.85;;
14470;SDS011;7321;50.802;4.336;2022-10-17T04:45:58;7.15;;;6.45;;
14470;SDS011;7321;50.802;4.336;2022-10-17T04:48:24;10.10;;;7.18;;
14470;SDS011;7321;50.802;4.336;2022-10-17T04:50:56;7.65;;;6.93;;
14470;SDS011;7321;50.802;4.336;2022-10-17T04:53:24;14.43;;;7.45;;
14470;SDS011;7321;50.802;4.336;2022-10-17T04:55:51;8.68;;;7.47;;
14470;SDS011;7321;50.802;4.336;2022-10-17T04:58:17;7.80;;;7.10;;
14470;SDS011;7321;50.802;4.336;2022-10-17T05:00:44;8.13;;;7.10;;
14470;SDS011;7321;50.802;4.336;2022-10-17T05:03:10;14.60;;;7.90;;
14470;SDS011;7321;50.802;4.336;2022-10-17T05:05:36;8.52;;;7.65;;
14470;SDS011;7321;50.802;4.336;2022-10-17T05:08:03;11.55;;;7.75;;
14470;SDS011;7321;50.802;4.336;2022-10-17T05:10:30;10.52;;;7.97;;
14470;SDS011;7321;50.802;4.336;2022-10-17T05:13:00;9.85;;;8.40;;
14470;SDS011;7321;50.802;4.336;2022-10-17T05:15:25;10.57;;;8.48;;
14470;SDS011;7321;50.802;4.336;2022-10-17T05:17:54;10.23;;;8.30;;
14470;SDS011;7321;50.802;4.336;2022-10-17T05:20:20;10.63;;;7.55;;
14470;SDS011;7321;50.802;4.336;2022-10-17T05:22:49;10.93;;;7.70;;
14470;SDS011;7321;50.802;4.336;2022-10-17T05:25:15;7.70;;;7.00;;
14470;SDS011;7321;50.802;4.336;2022-10-17T05:27:41;9.30;;;7.15;;
14470;SDS011;7321;50.802;4.336;2022-10-17T05:30:07;9.68;;;7.15;;
14470;SDS011;7321;50.802;4.336;2022-10-17T05:32:33;9.82;;;5.88;;
14470;SDS011;7321;50.802;4.336;2022-10-17T05:34:58;9.70;;;6.90;;
14470;SDS011;7321;50.802;4.336;2022-10-17T05:37:24;7.70;;;6.40;;
14470;SDS011;7321;50.802;4.336;2022-10-17T05:39:50;7.40;;;6.70;;
14470;SDS011;7321;50.802;4.336;2022-10-17T05:42:16;8.10;;;6.25;;
14470;SDS011;7321;50.802;4.336;2022-10-17T05:44:42;7.72;;;6.22;;
14470;SDS011;7321;50.802;4.336;2022-10-17T05:47:07;8.60;;;6.22;;
14470;SDS011;7321;50.802;4.336;2022-10-17T05:49:33;7.20;;;6.43;;
14470;SDS011;7321;50.802;4.336;2022-10-17T05:51:59;8.95;;;6.70;;
14470;SDS011;7321;50.802;4.336;2022-10-17T05:54:25;8.25;;;6.28;;
14470;SDS011;7321;50.802;4.336;2022-10-17T05:56:52;8.48;;;6.60;;
14470;SDS011;7321;50.802;4.336;2022-10-17T05:59:19;7.80;;;6.35;;
14470;SDS011;7321;50.802;4.336;2022-10-17T06:01:45;7.72;;;6.22;;
14470;SDS011;7321;50.802;4.336;2022-10-17T06:04:11;7.13;;;5.78;;
14470;SDS011;7321;50.802;4.336;2022-10-17T06:06:37;6.55;;;5.88;;
14470;SDS011;7321;50.802;4.336;2022-10-17T06:09:04;6.55;;;6.00;;
14470;SDS011;7321;50.802;4.336;2022-10-17T06:11:30;6.85;;;5.90;;
14470;SDS011;7321;50.802;4.336;2022-10-17T06:13:56;8.02;;;6.35;;
14470;SDS011;7321;50.802;4.336;2022-10-17T06:16:22;6.80;;;6.10;;
14470;SDS011;7321;50.802;4.336;2022-10-17T06:18:48;8.48;;;5.75;;
14470;SDS011;7321;50.802;4.336;2022-10-17T06:21:14;7.28;;;6.53;;
14470;SDS011;7321;50.802;4.336;2022-10-17T06:23:43;7.25;;;6.47;;
14470;SDS011;7321;50.802;4.336;2022-10-17T06:26:09;7.32;;;5.82;;
14470;SDS011;7321;50.802;4.336;2022-10-17T06:28:35;8.30;;;5.80;;
14470;SDS011;7321;50.802;4.336;2022-10-17T06:31:05;7.47;;;5.88;;
14470;SDS011;7321;50.802;4.336;2022-10-17T06:33:35;8.95;;;6.10;;
14470;SDS011;7321;50.802;4.336;2022-10-17T06:36:02;7.75;;;6.07;;
14470;SDS011;7321;50.802;4.336;2022-10-17T06:38:28;9.43;;;6.65;;
14470;SDS011;7321;50.802;4.336;2022-10-17T06:41:01;10.20;;;6.18;;
14470;SDS011;7321;50.802;4.336;2022-10-17T06:43:28;6.97;;;5.53;;
14470;SDS011;7321;50.802;4.336;2022-10-17T06:45:54;8.52;;;6.20;;
14470;SDS011;7321;50.802;4.336;2022-10-17T06:48:20;6.60;;;6.00;;
14470;SDS011;7321;50.802;4.336;2022-10-17T06:50:46;7.90;;;5.95;;
14470;SDS011;7321;50.802;4.336;2022-10-17T06:53:11;8.90;;;6.22;;
14470;SDS011;7321;50.802;4.336;2022-10-17T06:55:37;11.07;;;6.00;;
14470;SDS011;7321;50.802;4.336;2022-10-17T06:58:03;7.38;;;5.78;;
14470;SDS011;7321;50.802;4.336;2022-10-17T07:00:28;10.68;;;5.90;;
14470;SDS011;7321;50.802;4.336;2022-10-17T07:02:54;6.55;;;5.65;;
14470;SDS011;7321;50.802;4.336;2022-10-17T07:05:20;8.18;;;5.97;;
14470;SDS011;7321;50.802;4.336;2022-10-17T07:07:46;10.45;;;6.13;;
14470;SDS011;7321;50.802;4.336;2022-10-17T07:10:11;9.73;;;6.05;;
14470;SDS011;7321;50.802;4.336;2022-10-17T07:12:37;13.57;;;6.72;;
14470;SDS011;7321;50.802;4.336;2022-10-17T07:15:03;7.43;;;6.05;;
14470;SDS011;7321;50.802;4.336;2022-10-17T07:17:30;7.93;;;5.90;;
14470;SDS011;7321;50.802;4.336;2022-10-17T07:19:55;14.68;;;12.50;;
14470;SDS011;7321;50.802;4.336;2022-10-17T07:22:21;9.52;;;7.03;;
14470;SDS011;7321;50.802;4.336;2022-10-17T07:24:47;10.25;;;6.32;;
14470;SDS011;7321;50.802;4.336;2022-10-17T07:27:13;9.75;;;7.40;;
14470;SDS011;7321;50.802;4.336;2022-10-17T07:29:39;11.27;;;6.90;;
14470;SDS011;7321;50.802;4.336;2022-10-17T07:32:05;8.23;;;6.38;;
14470;SDS011;7321;50.802;4.336;2022-10-17T07:34:35;8.00;;;6.60;;
14470;SDS011;7321;50.802;4.336;2022-10-17T07:37:01;7.75;;;6.45;;
14470;SDS011;7321;50.802;4.336;2022-10-17T07:39:28;10.70;;;6.57;;
14470;SDS011;7321;50.802;4.336;2022-10-17T07:41:54;8.52;;;6.72;;
14470;SDS011;7321;50.802;4.336;2022-10-17T07:44:20;8.48;;;7.13;;
14470;SDS011;7321;50.802;4.336;2022-10-17T07:46:45;10.38;;;6.78;;
14470;SDS011;7321;50.802;4.336;2022-10-17T07:49:11;9.75;;;6.60;;
14470;SDS011;7321;50.802;4.336;2022-10-17T07:51:37;10.95;;;7.22;;
14470;SDS011;7321;50.802;4.336;2022-10-17T07:54:03;16.35;;;7.80;;
14470;SDS011;7321;50.802;4.336;2022-10-17T07:56:30;9.75;;;7.03;;
14470;SDS011;7321;50.802;4.336;2022-10-17T07:58:56;9.50;;;7.28;;
14470;SDS011;7321;50.802;4.336;2022-10-17T08:01:22;8.90;;;7.88;;
14470;SDS011;7321;50.802;4.336;2022-10-17T08:03:50;8.57;;;6.70;;
14470;SDS011;7321;50.802;4.336;2022-10-17T08:06:16;12.05;;;8.75;;
14470;SDS011;7321;50.802;4.336;2022-10-17T08:08:42;11.15;;;7.10;;
14470;SDS011;7321;50.802;4.336;2022-10-17T08:11:09;9.30;;;7.10;;
14470;SDS011;7321;50.802;4.336;2022-10-17T08:13:38;9.13;;;7.15;;
14470;SDS011;7321;50.802;4.336;2022-10-17T08:16:05;13.10;;;8.30;;
14470;SDS011;7321;50.802;4.336;2022-10-17T08:18:33;10.18;;;7.50;;
14470;SDS011;7321;50.802;4.336;2022-10-17T08:20:59;13.50;;;8.27;;
14470;SDS011;7321;50.802;4.336;2022-10-17T08:23:27;11.30;;;8.25;;
14470;SDS011;7321;50.802;4.336;2022-10-17T08:25:53;13.52;;;9.13;;
14470;SDS011;7321;50.802;4.336;2022-10-17T08:28:19;12.50;;;10.63;;
14470;SDS011;7321;50.802;4.336;2022-10-17T08:30:45;10.57;;;9.48;;
14470;SDS011;7321;50.802;4.336;2022-10-17T08:33:11;10.68;;;9.60;;
14470;SDS011;7321;50.802;4.336;2022-10-17T08:35:36;12.43;;;9.20;;
14470;SDS011;7321;50.802;4.336;2022-10-17T08:38:04;11.18;;;8.95;;
14470;SDS011;7321;50.802;4.336;2022-10-17T08:40:31;11.27;;;9.75;;
14470;SDS011;7321;50.802;4.336;2022-10-17T08:43:10;13.32;;;8.68;;
14470;SDS011;7321;50.802;4.336;2022-10-17T08:45:58;11.05;;;8.80;;
14470;SDS011;7321;50.802;4.336;2022-10-17T08:48:27;12.52;;;9.23;;
14470;SDS011;7321;50.802;4.336;2022-10-17T08:50:58;12.50;;;8.43;;
14470;SDS011;7321;50.802;4.336;2022-10-17T08:53:40;12.75;;;8.95;;
14470;SDS011;7321;50.802;4.336;2022-10-17T08:56:20;8.93;;;7.82;;
14470;SDS011;7321;50.802;4.336;2022-10-17T08:58:49;11.45;;;8.50;;
14470;SDS011;7321;50.802;4.336;2022-10-17T09:06:30;8.60;;;7.47;;
14470;SDS011;7321;50.802;4.336;2022-10-17T09:09:11;9.38;;;7.50;;
14470;SDS011;7321;50.802;4.336;2022-10-17T09:12:01;11.52;;;7.57;;
14470;SDS011;7321;50.802;4.336;2022-10-17T09:22:43;10.52;;;7.90;;
14470;SDS011;7321;50.802;4.336;2022-10-17T09:25:38;14.15;;;9.13;;
14470;SDS011;7321;50.802;4.336;2022-10-17T09:30:42;11.45;;;8.45;;
14470;SDS011;7321;50.802;4.336;2022-10-17T09:33:12;12.95;;;9.02;;
14470;SDS011;7321;50.802;4.336;2022-10-17T09:35:45;10.93;;;7.85;;
14470;SDS011;7321;50.802;4.336;2022-10-17T09:38:16;11.25;;;9.68;;
14470;SDS011;7321;50.802;4.336;2022-10-17T09:40:54;11.73;;;10.57;;
14470;SDS011;7321;50.802;4.336;2022-10-17T09:43:23;9.70;;;8.73;;
14470;SDS011;7321;50.802;4.336;2022-10-17T09:46:06;9.48;;;8.50;;
14470;SDS011;7321;50.802;4.336;2022-10-17T09:48:41;11.27;;;7.82;;
14470;SDS011;7321;50.802;4.336;2022-10-17T09:51:14;11.13;;;8.43;;
14470;SDS011;7321;50.802;4.336;2022-10-17T09:53:41;11.38;;;8.35;;
14470;SDS011;7321;50.802;4.336;2022-10-17T09:56:12;12.35;;;8.45;;
14470;SDS011;7321;50.802;4.336;2022-10-17T09:58:41;11.70;;;8.23;;
14470;SDS011;7321;50.802;4.336;2022-10-17T10:03:49;10.65;;;9.00;;
14470;SDS011;7321;50.802;4.336;2022-10-17T10:06:37;9.73;;;8.18;;
14470;SDS011;7321;50.802;4.336;2022-10-17T10:09:04;10.05;;;8.65;;
14470;SDS011;7321;50.802;4.336;2022-10-17T10:11:48;10.55;;;9.45;;
14470;SDS011;7321;50.802;4.336;2022-10-17T10:14:21;10.48;;;8.73;;
14470;SDS011;7321;50.802;4.336;2022-10-17T10:16:58;13.27;;;10.10;;
14470;SDS011;7321;50.802;4.336;2022-10-17T10:22:02;10.93;;;9.65;;
14470;SDS011;7321;50.802;4.336;2022-10-17T10:25:05;13.15;;;9.68;;
14470;SDS011;7321;50.802;4.336;2022-10-17T10:27:42;14.80;;;10.02;;
14470;SDS011;7321;50.802;4.336;2022-10-17T10:30:16;14.40;;;9.60;;
14470;SDS011;7321;50.802;4.336;2022-10-17T10:32:52;12.82;;;8.57;;
14470;SDS011;7321;50.802;4.336;2022-10-17T10:35:37;11.73;;;8.75;;
14470;SDS011;7321;50.802;4.336;2022-10-17T10:38:07;9.77;;;8.18;;
14470;SDS011;7321;50.802;4.336;2022-10-17T10:40:46;11.55;;;8.55;;
14470;SDS011;7321;50.802;4.336;2022-10-17T10:45:55;11.48;;;8.10;;
14470;SDS011;7321;50.802;4.336;2022-10-17T10:48:25;9.77;;;7.80;;
14470;SDS011;7321;50.802;4.336;2022-10-17T10:50:56;9.98;;;8.27;;
14470;SDS011;7321;50.802;4.336;2022-10-17T10:56:28;13.90;;;8.43;;
14470;SDS011;7321;50.802;4.336;2022-10-17T11:12:27;13.75;;;8.30;;
14470;SDS011;7321;50.802;4.336;2022-10-17T11:20:17;11.82;;;8.48;;
14470;SDS011;7321;50.802;4.336;2022-10-17T11:23:09;8.75;;;7.80;;
14470;SDS011;7321;50.802;4.336;2022-10-17T11:25:44;10.57;;;8.95;;
14470;SDS011;7321;50.802;4.336;2022-10-17T11:28:12;11.80;;;9.02;;
14470;SDS011;7321;50.802;4.336;2022-10-17T11:30:55;11.45;;;8.27;;
14470;SDS011;7321;50.802;4.336;2022-10-17T11:33:51;13.55;;;9.30;;
14470;SDS011;7321;50.802;4.336;2022-10-17T11:36:13;12.32;;;8.18;;
14470;SDS011;7321;50.802;4.336;2022-10-17T11:38:49;14.30;;;8.55;;
14470;SDS011;7321;50.802;4.336;2022-10-17T11:41:30;11.73;;;8.90;;
14470;SDS011;7321;50.802;4.336;2022-10-17T11:44:31;11.40;;;7.85;;
14470;SDS011;7321;50.802;4.336;2022-10-17T11:47:04;9.90;;;8.80;;
14470;SDS011;7321;50.802;4.336;2022-10-17T11:49:50;12.38;;;7.85;;
14470;SDS011;7321;50.802;4.336;2022-10-17T11:54:54;11.55;;;8.23;;
14470;SDS011;7321;50.802;4.336;2022-10-17T11:57:34;10.32;;;7.88;;
14470;SDS011;7321;50.802;4.336;2022-10-17T12:05:59;14.40;;;7.78;;
14470;SDS011;7321;50.802;4.336;2022-10-17T12:13:46;10.75;;;7.90;;
14470;SDS011;7321;50.802;4.336;2022-10-17T12:21:27;10.02;;;7.25;;
14470;SDS011;7321;50.802;4.336;2022-10-17T12:23:53;11.57;;;8.13;;
14470;SDS011;7321;50.802;4.336;2022-10-17T12:26:29;9.40;;;7.65;;
14470;SDS011;7321;50.802;4.336;2022-10-17T12:28:57;9.25;;;8.27;;
14470;SDS011;7321;50.802;4.336;2022-10-17T12:31:24;15.00;;;8.60;;
14470;SDS011;7321;50.802;4.336;2022-10-17T12:33:54;11.82;;;8.63;;
14470;SDS011;7321;50.802;4.336;2022-10-17T12:39:39;10.10;;;9.10;;
14470;SDS011;7321;50.802;4.336;2022-10-17T12:44:34;10.57;;;8.65;;
14470;SDS011;7321;50.802;4.336;2022-10-17T12:57:32;10.48;;;9.18;;
14470;SDS011;7321;50.802;4.336;2022-10-17T13:03:11;14.20;;;9.10;;
14470;SDS011;7321;50.802;4.336;2022-10-17T13:05:42;11.65;;;8.90;;
14470;SDS011;7321;50.802;4.336;2022-10-17T13:08:19;10.52;;;9.43;;
14470;SDS011;7321;50.802;4.336;2022-10-17T13:10:48;9.63;;;8.57;;
14470;SDS011;7321;50.802;4.336;2022-10-17T13:13:20;10.63;;;8.88;;
14470;SDS011;7321;50.802;4.336;2022-10-17T13:16:04;10.18;;;8.98;;
14470;SDS011;7321;50.802;4.336;2022-10-17T13:18:30;13.23;;;9.07;;
14470;SDS011;7321;50.802;4.336;2022-10-17T13:21:12;9.70;;;8.07;;
14470;SDS011;7321;50.802;4.336;2022-10-17T13:23:40;9.15;;;8.23;;
14470;SDS011;7321;50.802;4.336;2022-10-17T13:26:10;9.93;;;7.70;;
14470;SDS011;7321;50.802;4.336;2022-10-17T13:28:39;10.15;;;7.25;;
14470;SDS011;7321;50.802;4.336;2022-10-17T13:31:05;7.43;;;6.80;;
14470;SDS011;7321;50.802;4.336;2022-10-17T13:33:35;10.57;;;7.82;;
14470;SDS011;7321;50.802;4.336;2022-10-17T13:36:07;9.82;;;6.88;;
14470;SDS011;7321;50.802;4.336;2022-10-17T13:38:39;8.23;;;6.82;;
14470;SDS011;7321;50.802;4.336;2022-10-17T13:41:09;8.20;;;6.63;;
14470;SDS011;7321;50.802;4.336;2022-10-17T13:43:40;7.75;;;6.20;;
14470;SDS011;7321;50.802;4.336;2022-10-17T13:46:06;8.18;;;5.93;;
14470;SDS011;7321;50.802;4.336;2022-10-17T13:48:39;8.65;;;6.05;;
14470;SDS011;7321;50.802;4.336;2022-10-17T13:51:05;9.65;;;6.10;;
14470;SDS011;7321;50.802;4.336;2022-10-17T13:53:35;6.95;;;4.97;;
14470;SDS011;7321;50.802;4.336;2022-10-17T13:56:21;7.18;;;5.10;;
14470;SDS011;7321;50.802;4.336;2022-10-17T13:58:58;6.65;;;4.47;;
14470;SDS011;7321;50.802;4.336;2022-10-17T14:01:28;6.68;;;5.18;;
14470;SDS011;7321;50.802;4.336;2022-10-17T14:03:57;5.32;;;4.60;;
14470;SDS011;7321;50.802;4.336;2022-10-17T14:06:27;4.65;;;4.15;;
14470;SDS011;7321;50.802;4.336;2022-10-17T14:09:02;8.00;;;4.75;;
14470;SDS011;7321;50.802;4.336;2022-10-17T14:11:40;7.13;;;4.00;;
14470;SDS011;7321;50.802;4.336;2022-10-17T14:14:23;6.38;;;3.47;;
14470;SDS011;7321;50.802;4.336;2022-10-17T14:16:50;9.20;;;4.35;;
14470;SDS011;7321;50.802;4.336;2022-10-17T14:19:30;5.68;;;4.00;;
14470;SDS011;7321;50.802;4.336;2022-10-17T14:24:49;5.72;;;3.83;;
14470;SDS011;7321;50.802;4.336;2022-10-17T14:27:33;5.55;;;4.13;;
14470;SDS011;7321;50.802;4.336;2022-10-17T14:30:04;7.50;;;4.65;;
14470;SDS011;7321;50.802;4.336;2022-10-17T14:32:50;4.93;;;3.92;;
14470;SDS011;7321;50.802;4.336;2022-10-17T14:35:21;6.65;;;4.47;;
14470;SDS011;7321;50.802;4.336;2022-10-17T14:37:48;6.40;;;3.90;;
14470;SDS011;7321;50.802;4.336;2022-10-17T14:40:17;5.15;;;3.45;;
14470;SDS011;7321;50.802;4.336;2022-10-17T14:42:47;10.35;;;4.70;;
14470;SDS011;7321;50.802;4.336;2022-10-17T14:45:25;4.97;;;4.40;;
14470;SDS011;7321;50.802;4.336;2022-10-17T14:47:54;5.70;;;4.25;;
14470;SDS011;7321;50.802;4.336;2022-10-17T14:50:29;5.22;;;4.28;;
14470;SDS011;7321;50.802;4.336;2022-10-17T14:53:01;7.22;;;4.97;;
14470;SDS011;7321;50.802;4.336;2022-10-17T14:55:30;6.32;;;4.20;;
14470;SDS011;7321;50.802;4.336;2022-10-17T14:57:57;5.07;;;4.07;;
14470;SDS011;7321;50.802;4.336;2022-10-17T15:00:23;6.05;;;4.90;;
14470;SDS011;7321;50.802;4.336;2022-10-17T15:02:50;5.70;;;4.78;;
14470;SDS011;7321;50.802;4.336;2022-10-17T15:05:17;6.75;;;4.40;;
14470;SDS011;7321;50.802;4.336;2022-10-17T15:07:44;7.78;;;5.10;;
14470;SDS011;7321;50.802;4.336;2022-10-17T15:10:44;5.82;;;4.55;;
14470;SDS011;7321;50.802;4.336;2022-10-17T15:13:06;4.80;;;4.28;;
14470;SDS011;7321;50.802;4.336;2022-10-17T15:15:33;6.13;;;4.25;;
14470;SDS011;7321;50.802;4.336;2022-10-17T15:17:59;6.15;;;3.85;;
14470;SDS011;7321;50.802;4.336;2022-10-17T15:20:26;6.57;;;4.18;;
14470;SDS011;7321;50.802;4.336;2022-10-17T15:22:58;4.97;;;3.65;;
14470;SDS011;7321;50.802;4.336;2022-10-17T15:25:25;4.60;;;3.97;;
14470;SDS011;7321;50.802;4.336;2022-10-17T15:27:52;4.80;;;3.92;;
14470;SDS011;7321;50.802;4.336;2022-10-17T15:32:52;4.68;;;4.28;;
14470;SDS011;7321;50.802;4.336;2022-10-17T15:35:18;5.97;;;4.13;;
14470;SDS011;7321;50.802;4.336;2022-10-17T15:37:45;4.85;;;3.80;;
14470;SDS011;7321;50.802;4.336;2022-10-17T15:40:16;4.93;;;3.83;;
14470;SDS011;7321;50.802;4.336;2022-10-17T15:42:53;5.35;;;4.40;;
14470;SDS011;7321;50.802;4.336;2022-10-17T15:45:20;5.57;;;4.38;;
14470;SDS011;7321;50.802;4.336;2022-10-17T15:47:51;6.25;;;4.88;;
14470;SDS011;7321;50.802;4.336;2022-10-17T15:50:20;5.03;;;3.67;;
14470;SDS011;7321;50.802;4.336;2022-10-17T15:52:46;5.13;;;3.95;;
14470;SDS011;7321;50.802;4.336;2022-10-17T15:55:15;5.95;;;4.35;;
14470;SDS011;7321;50.802;4.336;2022-10-17T15:57:43;5.22;;;4.22;;
14470;SDS011;7321;50.802;4.336;2022-10-17T16:00:14;4.80;;;4.38;;
14470;SDS011;7321;50.802;4.336;2022-10-17T16:02:42;4.53;;;3.80;;
14470;SDS011;7321;50.802;4.336;2022-10-17T16:05:13;5.70;;;4.00;;
14470;SDS011;7321;50.802;4.336;2022-10-17T16:07:41;5.47;;;3.80;;
14470;SDS011;7321;50.802;4.336;2022-10-17T16:10:10;6.70;;;4.50;;
14470;SDS011;7321;50.802;4.336;2022-10-17T16:12:37;6.45;;;4.15;;
14470;SDS011;7321;50.802;4.336;2022-10-17T16:15:26;5.93;;;4.15;;
14470;SDS011;7321;50.802;4.336;2022-10-17T16:17:52;9.52;;;4.55;;
14470;SDS011;7321;50.802;4.336;2022-10-17T16:20:19;4.75;;;4.13;;
14470;SDS011;7321;50.802;4.336;2022-10-17T16:22:46;6.15;;;4.35;;
14470;SDS011;7321;50.802;4.336;2022-10-17T16:27:49;5.75;;;4.20;;
14470;SDS011;7321;50.802;4.336;2022-10-17T16:30:17;5.32;;;4.50;;
14470;SDS011;7321;50.802;4.336;2022-10-17T16:32:43;6.15;;;4.50;;
14470;SDS011;7321;50.802;4.336;2022-10-17T16:35:10;4.78;;;4.30;;
14470;SDS011;7321;50.802;4.336;2022-10-17T16:37:42;5.75;;;4.90;;
14470;SDS011;7321;50.802;4.336;2022-10-17T16:40:08;6.93;;;5.40;;
14470;SDS011;7321;50.802;4.336;2022-10-17T16:42:34;7.75;;;6.32;;
14470;SDS011;7321;50.802;4.336;2022-10-17T16:45:00;8.05;;;6.00;;
14470;SDS011;7321;50.802;4.336;2022-10-17T16:47:26;7.05;;;6.35;;
14470;SDS011;7321;50.802;4.336;2022-10-17T16:49:51;10.35;;;7.65;;
14470;SDS011;7321;50.802;4.336;2022-10-17T16:52:17;10.85;;;8.38;;
14470;SDS011;7321;50.802;4.336;2022-10-17T16:54:43;12.30;;;7.75;;
14470;SDS011;7321;50.802;4.336;2022-10-17T16:57:09;8.45;;;7.65;;
14470;SDS011;7321;50.802;4.336;2022-10-17T16:59:34;12.65;;;9.63;;
14470;SDS011;7321;50.802;4.336;2022-10-17T17:02:00;11.40;;;9.80;;
14470;SDS011;7321;50.802;4.336;2022-10-17T17:04:26;18.35;;;10.80;;
14470;SDS011;7321;50.802;4.336;2022-10-17T17:06:51;11.05;;;9.80;;
14470;SDS011;7321;50.802;4.336;2022-10-17T17:09:17;10.93;;;8.88;;
14470;SDS011;7321;50.802;4.336;2022-10-17T17:11:43;10.88;;;8.27;;
14470;SDS011;7321;50.802;4.336;2022-10-17T17:14:12;12.30;;;8.32;;
14470;SDS011;7321;50.802;4.336;2022-10-17T17:16:38;11.40;;;8.82;;